sensor_id;sensor_type;location;lat;lon;timestamp;P1;durP1;ratioP1;P2;durP2;ratioP2
75377;SDS011;63959;51.960;5.886;2023-06-19T00:00:10;7.75;;;5.72;;
75377;SDS011;63959;51.960;5.886;2023-06-19T00:02:42;9.85;;;6.55;;
75377;SDS011;63959;51.960;5.886;2023-06-19T00:05:12;7.80;;;6.03;;
75377;SDS011;63959;51.960;5.886;2023-06-19T00:07:40;8.70;;;6.72;;
75377;SDS011;63959;51.960;5.886;2023-06-19T00:10:09;8.70;;;6.18;;
75377;SDS011;63959;51.960;5.886;2023-06-19T00:12:37;8.95;;;6.75;;
75377;SDS011;63959;51.960;5.886;2023-06-19T00:15:09;8.48;;;5.13;;
75377;SDS011;63959;51.960;5.886;2023-06-19T00:17:38;9.50;;;6.35;;
75377;SDS011;63959;51.960;5.886;2023-06-19T00:20:07;8.57;;;6.75;;
75377;SDS011;63959;51.960;5.886;2023-06-19T00:22:39;11.85;;;5.78;;
75377;SDS011;63959;51.960;5.886;2023-06-19T00:25:07;8.07;;;6.03;;
75377;SDS011;63959;51.960;5.886;2023-06-19T00:27:36;8.52;;;5.38;;
75377;SDS011;63959;51.960;5.886;2023-06-19T00:30:05;8.57;;;5.72;;
75377;SDS011;63959;51.960;5.886;2023-06-19T00:32:37;7.63;;;5.80;;
75377;SDS011;63959;51.960;5.886;2023-06-19T00:35:12;8.02;;;4.90;;
75377;SDS011;63959;51.960;5.886;2023-06-19T00:37:40;9.13;;;5.63;;
75377;SDS011;63959;51.960;5.886;2023-06-19T00:40:12;6.68;;;5.30;;
75377;SDS011;63959;51.960;5.886;2023-06-19T00:42:42;9.77;;;5.50;;
75377;SDS011;63959;51.960;5.886;2023-06-19T00:45:10;8.60;;;5.63;;
75377;SDS011;63959;51.960;5.886;2023-06-19T00:47:42;8.98;;;5.32;;
75377;SDS011;63959;51.960;5.886;2023-06-19T00:50:10;7.90;;;4.70;;
75377;SDS011;63959;51.960;5.886;2023-06-19T00:52:39;7.45;;;5.38;;
75377;SDS011;63959;51.960;5.886;2023-06-19T00:55:08;9.32;;;6.18;;
75377;SDS011;63959;51.960;5.886;2023-06-19T00:57:37;7.28;;;4.55;;
75377;SDS011;63959;51.960;5.886;2023-06-19T01:00:06;8.45;;;5.13;;
75377;SDS011;63959;51.960;5.886;2023-06-19T01:02:38;6.97;;;4.78;;
75377;SDS011;63959;51.960;5.886;2023-06-19T01:05:09;9.15;;;4.88;;
75377;SDS011;63959;51.960;5.886;2023-06-19T01:07:41;7.40;;;5.00;;
75377;SDS011;63959;51.960;5.886;2023-06-19T01:10:12;8.02;;;4.90;;
75377;SDS011;63959;51.960;5.886;2023-06-19T01:12:44;8.75;;;5.47;;
75377;SDS011;63959;51.960;5.886;2023-06-19T01:15:16;7.97;;;5.50;;
75377;SDS011;63959;51.960;5.886;2023-06-19T01:17:45;7.82;;;5.38;;
75377;SDS011;63959;51.960;5.886;2023-06-19T01:20:17;8.88;;;5.78;;
75377;SDS011;63959;51.960;5.886;2023-06-19T01:22:48;6.72;;;4.90;;
75377;SDS011;63959;51.960;5.886;2023-06-19T01:25:16;7.80;;;4.57;;
75377;SDS011;63959;51.960;5.886;2023-06-19T01:27:45;7.13;;;3.97;;
75377;SDS011;63959;51.960;5.886;2023-06-19T01:30:14;9.10;;;5.03;;
75377;SDS011;63959;51.960;5.886;2023-06-19T01:32:44;7.20;;;4.30;;
75377;SDS011;63959;51.960;5.886;2023-06-19T01:35:15;6.65;;;3.88;;
75377;SDS011;63959;51.960;5.886;2023-06-19T01:37:48;7.68;;;4.60;;
75377;SDS011;63959;51.960;5.886;2023-06-19T01:40:17;7.07;;;4.47;;
75377;SDS011;63959;51.960;5.886;2023-06-19T01:42:47;7.25;;;4.20;;
75377;SDS011;63959;51.960;5.886;2023-06-19T01:45:16;7.57;;;3.83;;
75377;SDS011;63959;51.960;5.886;2023-06-19T01:47:44;8.50;;;4.60;;
75377;SDS011;63959;51.960;5.886;2023-06-19T01:50:13;6.88;;;3.75;;
75377;SDS011;63959;51.960;5.886;2023-06-19T01:52:44;8.68;;;4.47;;
75377;SDS011;63959;51.960;5.886;2023-06-19T01:55:16;7.45;;;3.88;;
75377;SDS011;63959;51.960;5.886;2023-06-19T01:57:44;7.05;;;3.90;;
75377;SDS011;63959;51.960;5.886;2023-06-19T02:00:14;6.65;;;4.10;;
75377;SDS011;63959;51.960;5.886;2023-06-19T02:02:42;6.85;;;3.63;;
75377;SDS011;63959;51.960;5.886;2023-06-19T02:05:11;5.88;;;3.60;;
75377;SDS011;63959;51.960;5.886;2023-06-19T02:07:40;6.45;;;3.60;;
75377;SDS011;63959;51.960;5.886;2023-06-19T02:10:09;5.88;;;3.42;;
75377;SDS011;63959;51.960;5.886;2023-06-19T02:12:41;6.07;;;3.30;;
75377;SDS011;63959;51.960;5.886;2023-06-19T02:15:09;6.50;;;3.45;;
75377;SDS011;63959;51.960;5.886;2023-06-19T02:17:39;5.60;;;3.45;;
75377;SDS011;63959;51.960;5.886;2023-06-19T02:20:08;7.35;;;4.22;;
75377;SDS011;63959;51.960;5.886;2023-06-19T02:22:37;6.03;;;3.47;;
75377;SDS011;63959;51.960;5.886;2023-06-19T02:25:06;7.60;;;4.45;;
75377;SDS011;63959;51.960;5.886;2023-06-19T02:27:35;6.72;;;3.65;;
75377;SDS011;63959;51.960;5.886;2023-06-19T02:30:07;6.28;;;3.30;;
75377;SDS011;63959;51.960;5.886;2023-06-19T02:32:36;7.60;;;3.55;;
75377;SDS011;63959;51.960;5.886;2023-06-19T02:35:05;7.40;;;3.97;;
75377;SDS011;63959;51.960;5.886;2023-06-19T02:37:34;7.82;;;3.50;;
75377;SDS011;63959;51.960;5.886;2023-06-19T02:40:03;6.43;;;3.45;;
75377;SDS011;63959;51.960;5.886;2023-06-19T02:42:32;6.97;;;3.40;;
75377;SDS011;63959;51.960;5.886;2023-06-19T02:45:00;5.63;;;3.13;;
75377;SDS011;63959;51.960;5.886;2023-06-19T02:47:33;6.18;;;3.25;;
75377;SDS011;63959;51.960;5.886;2023-06-19T02:50:02;4.60;;;2.45;;
75377;SDS011;63959;51.960;5.886;2023-06-19T02:52:31;5.35;;;3.08;;
75377;SDS011;63959;51.960;5.886;2023-06-19T02:55:00;6.53;;;2.67;;
75377;SDS011;63959;51.960;5.886;2023-06-19T02:57:29;5.68;;;2.83;;
75377;SDS011;63959;51.960;5.886;2023-06-19T02:59:57;5.25;;;2.80;;
75377;SDS011;63959;51.960;5.886;2023-06-19T03:02:26;4.40;;;1.92;;
75377;SDS011;63959;51.960;5.886;2023-06-19T03:04:57;5.20;;;2.20;;
75377;SDS011;63959;51.960;5.886;2023-06-19T03:07:26;5.28;;;2.50;;
75377;SDS011;63959;51.960;5.886;2023-06-19T03:09:55;4.40;;;2.33;;
75377;SDS011;63959;51.960;5.886;2023-06-19T03:12:23;4.32;;;2.40;;
75377;SDS011;63959;51.960;5.886;2023-06-19T03:14:53;5.13;;;2.38;;
75377;SDS011;63959;51.960;5.886;2023-06-19T03:17:23;4.45;;;2.00;;
75377;SDS011;63959;51.960;5.886;2023-06-19T03:19:52;4.47;;;2.30;;
75377;SDS011;63959;51.960;5.886;2023-06-19T03:22:24;5.68;;;2.50;;
75377;SDS011;63959;51.960;5.886;2023-06-19T03:24:52;5.10;;;2.40;;
75377;SDS011;63959;51.960;5.886;2023-06-19T03:27:21;4.38;;;2.28;;
75377;SDS011;63959;51.960;5.886;2023-06-19T03:29:51;5.15;;;2.42;;
75377;SDS011;63959;51.960;5.886;2023-06-19T03:32:27;4.97;;;2.28;;
75377;SDS011;63959;51.960;5.886;2023-06-19T03:34:56;4.20;;;2.10;;
75377;SDS011;63959;51.960;5.886;2023-06-19T03:37:27;4.63;;;2.13;;
75377;SDS011;63959;51.960;5.886;2023-06-19T03:42:31;4.80;;;2.25;;
75377;SDS011;63959;51.960;5.886;2023-06-19T03:45:00;4.38;;;2.10;;
75377;SDS011;63959;51.960;5.886;2023-06-19T03:47:29;4.78;;;2.17;;
75377;SDS011;63959;51.960;5.886;2023-06-19T03:49:58;4.18;;;1.83;;
75377;SDS011;63959;51.960;5.886;2023-06-19T03:52:29;4.68;;;2.30;;
75377;SDS011;63959;51.960;5.886;2023-06-19T03:54:57;4.60;;;2.38;;
75377;SDS011;63959;51.960;5.886;2023-06-19T03:57:26;4.75;;;2.28;;
75377;SDS011;63959;51.960;5.886;2023-06-19T03:59:55;4.00;;;2.00;;
75377;SDS011;63959;51.960;5.886;2023-06-19T04:02:24;4.43;;;2.03;;
75377;SDS011;63959;51.960;5.886;2023-06-19T04:04:53;4.45;;;2.22;;
75377;SDS011;63959;51.960;5.886;2023-06-19T04:07:22;5.45;;;2.53;;
75377;SDS011;63959;51.960;5.886;2023-06-19T04:09:53;5.90;;;2.20;;
75377;SDS011;63959;51.960;5.886;2023-06-19T04:12:21;5.53;;;2.30;;
75377;SDS011;63959;51.960;5.886;2023-06-19T04:14:50;4.70;;;2.20;;
75377;SDS011;63959;51.960;5.886;2023-06-19T04:17:19;4.82;;;1.95;;
75377;SDS011;63959;51.960;5.886;2023-06-19T04:19:48;4.57;;;1.90;;
75377;SDS011;63959;51.960;5.886;2023-06-19T04:22:19;4.90;;;2.80;;
75377;SDS011;63959;51.960;5.886;2023-06-19T04:24:47;4.60;;;2.00;;
75377;SDS011;63959;51.960;5.886;2023-06-19T04:27:19;4.32;;;2.28;;
75377;SDS011;63959;51.960;5.886;2023-06-19T04:29:48;4.88;;;2.42;;
75377;SDS011;63959;51.960;5.886;2023-06-19T04:32:18;5.22;;;2.50;;
75377;SDS011;63959;51.960;5.886;2023-06-19T04:34:47;5.57;;;2.40;;
75377;SDS011;63959;51.960;5.886;2023-06-19T04:37:15;4.35;;;2.00;;
75377;SDS011;63959;51.960;5.886;2023-06-19T04:39:45;5.20;;;2.38;;
75377;SDS011;63959;51.960;5.886;2023-06-19T04:42:13;5.53;;;2.50;;
75377;SDS011;63959;51.960;5.886;2023-06-19T04:44:48;4.97;;;2.28;;
75377;SDS011;63959;51.960;5.886;2023-06-19T04:47:18;5.60;;;2.33;;
75377;SDS011;63959;51.960;5.886;2023-06-19T04:49:46;4.57;;;2.30;;
75377;SDS011;63959;51.960;5.886;2023-06-19T04:52:15;4.93;;;2.63;;
75377;SDS011;63959;51.960;5.886;2023-06-19T04:54:44;5.93;;;2.97;;
75377;SDS011;63959;51.960;5.886;2023-06-19T04:57:14;5.00;;;2.65;;
75377;SDS011;63959;51.960;5.886;2023-06-19T04:59:42;5.15;;;2.35;;
75377;SDS011;63959;51.960;5.886;2023-06-19T05:02:14;6.45;;;3.38;;
75377;SDS011;63959;51.960;5.886;2023-06-19T05:04:42;5.88;;;3.50;;
75377;SDS011;63959;51.960;5.886;2023-06-19T05:07:11;5.90;;;3.25;;
75377;SDS011;63959;51.960;5.886;2023-06-19T05:09:41;5.00;;;2.67;;
75377;SDS011;63959;51.960;5.886;2023-06-19T05:12:09;6.85;;;2.90;;
75377;SDS011;63959;51.960;5.886;2023-06-19T05:14:38;5.25;;;3.00;;
75377;SDS011;63959;51.960;5.886;2023-06-19T05:17:07;7.28;;;3.28;;
75377;SDS011;63959;51.960;5.886;2023-06-19T05:19:38;8.02;;;3.30;;
75377;SDS011;63959;51.960;5.886;2023-06-19T05:22:07;6.43;;;3.45;;
75377;SDS011;63959;51.960;5.886;2023-06-19T05:24:36;7.30;;;3.85;;
75377;SDS011;63959;51.960;5.886;2023-06-19T05:27:04;7.10;;;3.38;;
75377;SDS011;63959;51.960;5.886;2023-06-19T05:29:33;5.57;;;3.25;;
75377;SDS011;63959;51.960;5.886;2023-06-19T05:32:02;5.80;;;3.25;;
75377;SDS011;63959;51.960;5.886;2023-06-19T05:34:31;5.63;;;3.38;;
75377;SDS011;63959;51.960;5.886;2023-06-19T05:37:02;5.65;;;3.28;;
75377;SDS011;63959;51.960;5.886;2023-06-19T05:39:31;6.20;;;4.03;;
75377;SDS011;63959;51.960;5.886;2023-06-19T05:41:59;8.57;;;4.47;;
75377;SDS011;63959;51.960;5.886;2023-06-19T05:44:28;7.40;;;4.82;;
75377;SDS011;63959;51.960;5.886;2023-06-19T05:46:57;7.88;;;3.97;;
75377;SDS011;63959;51.960;5.886;2023-06-19T05:49:25;6.95;;;4.45;;
75377;SDS011;63959;51.960;5.886;2023-06-19T05:51:54;6.45;;;3.28;;
75377;SDS011;63959;51.960;5.886;2023-06-19T05:54:27;6.78;;;3.38;;
75377;SDS011;63959;51.960;5.886;2023-06-19T05:56:55;9.93;;;4.90;;
75377;SDS011;63959;51.960;5.886;2023-06-19T05:59:24;7.75;;;4.75;;
75377;SDS011;63959;51.960;5.886;2023-06-19T06:01:53;8.05;;;4.35;;
75377;SDS011;63959;51.960;5.886;2023-06-19T06:04:22;7.22;;;3.42;;
75377;SDS011;63959;51.960;5.886;2023-06-19T06:06:50;11.20;;;5.70;;
75377;SDS011;63959;51.960;5.886;2023-06-19T06:09:19;7.60;;;4.28;;
75377;SDS011;63959;51.960;5.886;2023-06-19T06:11:50;10.15;;;5.35;;
75377;SDS011;63959;51.960;5.886;2023-06-19T06:14:19;8.30;;;5.00;;
75377;SDS011;63959;51.960;5.886;2023-06-19T06:16:47;10.93;;;6.65;;
75377;SDS011;63959;51.960;5.886;2023-06-19T06:19:16;7.35;;;4.55;;
75377;SDS011;63959;51.960;5.886;2023-06-19T06:21:44;8.00;;;5.00;;
75377;SDS011;63959;51.960;5.886;2023-06-19T06:24:13;8.40;;;5.22;;
75377;SDS011;63959;51.960;5.886;2023-06-19T06:26:42;10.43;;;6.35;;
75377;SDS011;63959;51.960;5.886;2023-06-19T06:29:13;8.95;;;5.50;;
75377;SDS011;63959;51.960;5.886;2023-06-19T06:31:41;9.90;;;6.47;;
75377;SDS011;63959;51.960;5.886;2023-06-19T06:34:10;8.27;;;5.53;;
75377;SDS011;63959;51.960;5.886;2023-06-19T06:36:39;6.53;;;4.35;;
75377;SDS011;63959;51.960;5.886;2023-06-19T06:39:07;9.45;;;6.32;;
75377;SDS011;63959;51.960;5.886;2023-06-19T06:41:36;9.20;;;6.82;;
75377;SDS011;63959;51.960;5.886;2023-06-19T06:44:05;8.02;;;4.93;;
75377;SDS011;63959;51.960;5.886;2023-06-19T06:46:36;8.00;;;4.85;;
75377;SDS011;63959;51.960;5.886;2023-06-19T06:49:04;10.57;;;6.97;;
75377;SDS011;63959;51.960;5.886;2023-06-19T06:51:33;8.25;;;5.53;;
75377;SDS011;63959;51.960;5.886;2023-06-19T06:54:03;9.80;;;6.78;;
75377;SDS011;63959;51.960;5.886;2023-06-19T06:56:31;9.52;;;6.47;;
75377;SDS011;63959;51.960;5.886;2023-06-19T06:59:00;9.88;;;6.32;;
75377;SDS011;63959;51.960;5.886;2023-06-19T07:01:29;8.95;;;6.18;;
75377;SDS011;63959;51.960;5.886;2023-06-19T07:04:00;7.22;;;4.53;;
75377;SDS011;63959;51.960;5.886;2023-06-19T07:06:28;8.82;;;6.45;;
75377;SDS011;63959;51.960;5.886;2023-06-19T07:08:57;7.82;;;5.43;;
75377;SDS011;63959;51.960;5.886;2023-06-19T07:11:26;10.02;;;7.30;;
75377;SDS011;63959;51.960;5.886;2023-06-19T07:13:54;9.30;;;6.32;;
75377;SDS011;63959;51.960;5.886;2023-06-19T07:16:23;7.50;;;5.18;;
75377;SDS011;63959;51.960;5.886;2023-06-19T07:18:56;11.30;;;6.72;;
75377;SDS011;63959;51.960;5.886;2023-06-19T07:21:27;8.48;;;5.25;;
75377;SDS011;63959;51.960;5.886;2023-06-19T07:23:56;8.38;;;4.85;;
75377;SDS011;63959;51.960;5.886;2023-06-19T07:26:25;7.95;;;4.55;;
75377;SDS011;63959;51.960;5.886;2023-06-19T07:28:54;7.97;;;5.15;;
75377;SDS011;63959;51.960;5.886;2023-06-19T07:31:22;9.70;;;5.70;;
75377;SDS011;63959;51.960;5.886;2023-06-19T07:33:51;8.98;;;5.82;;
75377;SDS011;63959;51.960;5.886;2023-06-19T07:36:20;8.63;;;6.18;;
75377;SDS011;63959;51.960;5.886;2023-06-19T07:38:51;12.85;;;7.25;;
75377;SDS011;63959;51.960;5.886;2023-06-19T07:41:22;9.18;;;6.20;;
75377;SDS011;63959;51.960;5.886;2023-06-19T07:43:51;8.45;;;5.85;;
75377;SDS011;63959;51.960;5.886;2023-06-19T07:46:19;9.10;;;6.78;;
75377;SDS011;63959;51.960;5.886;2023-06-19T07:48:48;11.15;;;6.65;;
75377;SDS011;63959;51.960;5.886;2023-06-19T07:51:16;10.35;;;6.90;;
75377;SDS011;63959;51.960;5.886;2023-06-19T07:53:45;9.82;;;6.10;;
75377;SDS011;63959;51.960;5.886;2023-06-19T07:56:16;9.80;;;6.28;;
75377;SDS011;63959;51.960;5.886;2023-06-19T07:58:45;11.93;;;8.95;;
75377;SDS011;63959;51.960;5.886;2023-06-19T08:01:14;10.10;;;7.03;;
75377;SDS011;63959;51.960;5.886;2023-06-19T08:03:42;11.02;;;8.88;;
75377;SDS011;63959;51.960;5.886;2023-06-19T08:06:11;11.90;;;8.48;;
75377;SDS011;63959;51.960;5.886;2023-06-19T08:08:39;12.77;;;9.43;;
75377;SDS011;63959;51.960;5.886;2023-06-19T08:11:08;11.48;;;8.40;;
75377;SDS011;63959;51.960;5.886;2023-06-19T08:13:39;9.88;;;7.30;;
75377;SDS011;63959;51.960;5.886;2023-06-19T08:16:08;9.48;;;7.38;;
75377;SDS011;63959;51.960;5.886;2023-06-19T08:18:36;11.23;;;9.73;;
75377;SDS011;63959;51.960;5.886;2023-06-19T08:21:05;11.23;;;8.70;;
75377;SDS011;63959;51.960;5.886;2023-06-19T08:23:33;11.20;;;8.02;;
75377;SDS011;63959;51.960;5.886;2023-06-19T08:26:03;11.43;;;8.63;;
75377;SDS011;63959;51.960;5.886;2023-06-19T08:28:33;9.95;;;7.60;;
75377;SDS011;63959;51.960;5.886;2023-06-19T08:31:04;12.35;;;8.85;;
75377;SDS011;63959;51.960;5.886;2023-06-19T08:33:33;9.60;;;6.85;;
75377;SDS011;63959;51.960;5.886;2023-06-19T08:36:02;11.60;;;7.38;;
75377;SDS011;63959;51.960;5.886;2023-06-19T08:38:31;9.60;;;7.22;;
75377;SDS011;63959;51.960;5.886;2023-06-19T08:40:59;11.90;;;9.15;;
75377;SDS011;63959;51.960;5.886;2023-06-19T08:43:28;13.82;;;9.82;;
75377;SDS011;63959;51.960;5.886;2023-06-19T08:45:59;11.20;;;8.68;;
75377;SDS011;63959;51.960;5.886;2023-06-19T08:48:33;13.30;;;8.55;;
75377;SDS011;63959;51.960;5.886;2023-06-19T08:51:02;9.98;;;7.80;;
75377;SDS011;63959;51.960;5.886;2023-06-19T08:53:33;12.45;;;8.80;;
75377;SDS011;63959;51.960;5.886;2023-06-19T08:56:04;13.80;;;8.98;;
75377;SDS011;63959;51.960;5.886;2023-06-19T08:58:32;13.27;;;10.32;;
75377;SDS011;63959;51.960;5.886;2023-06-19T09:01:02;12.93;;;8.60;;
75377;SDS011;63959;51.960;5.886;2023-06-19T09:03:30;11.13;;;9.15;;
75377;SDS011;63959;51.960;5.886;2023-06-19T09:06:05;14.43;;;8.80;;
75377;SDS011;63959;51.960;5.886;2023-06-19T09:08:34;13.55;;;10.07;;
75377;SDS011;63959;51.960;5.886;2023-06-19T09:11:03;14.02;;;8.98;;
75377;SDS011;63959;51.960;5.886;2023-06-19T09:13:32;11.98;;;7.97;;
75377;SDS011;63959;51.960;5.886;2023-06-19T09:16:02;12.07;;;8.48;;
75377;SDS011;63959;51.960;5.886;2023-06-19T09:18:32;12.00;;;8.85;;
75377;SDS011;63959;51.960;5.886;2023-06-19T09:21:00;13.55;;;10.50;;
75377;SDS011;63959;51.960;5.886;2023-06-19T09:23:31;10.43;;;7.63;;
75377;SDS011;63959;51.960;5.886;2023-06-19T09:26:03;15.25;;;10.52;;
75377;SDS011;63959;51.960;5.886;2023-06-19T09:28:33;14.25;;;10.68;;
75377;SDS011;63959;51.960;5.886;2023-06-19T09:31:08;14.88;;;11.50;;
75377;SDS011;63959;51.960;5.886;2023-06-19T09:33:37;12.80;;;9.95;;
75377;SDS011;63959;51.960;5.886;2023-06-19T09:36:05;14.23;;;10.30;;
75377;SDS011;63959;51.960;5.886;2023-06-19T09:38:37;13.38;;;9.30;;
75377;SDS011;63959;51.960;5.886;2023-06-19T09:41:09;14.98;;;10.55;;
75377;SDS011;63959;51.960;5.886;2023-06-19T09:43:38;13.27;;;10.65;;
75377;SDS011;63959;51.960;5.886;2023-06-19T09:46:07;11.93;;;9.88;;
75377;SDS011;63959;51.960;5.886;2023-06-19T09:48:41;13.55;;;9.10;;
75377;SDS011;63959;51.960;5.886;2023-06-19T09:51:12;11.57;;;9.35;;
75377;SDS011;63959;51.960;5.886;2023-06-19T09:53:48;11.88;;;9.35;;
75377;SDS011;63959;51.960;5.886;2023-06-19T09:56:17;12.90;;;9.07;;
75377;SDS011;63959;51.960;5.886;2023-06-19T09:58:47;14.10;;;10.10;;
75377;SDS011;63959;51.960;5.886;2023-06-19T10:01:16;13.45;;;9.85;;
75377;SDS011;63959;51.960;5.886;2023-06-19T10:03:45;12.40;;;10.32;;
75377;SDS011;63959;51.960;5.886;2023-06-19T10:06:15;12.20;;;9.68;;
75377;SDS011;63959;51.960;5.886;2023-06-19T10:08:47;15.60;;;11.23;;
75377;SDS011;63959;51.960;5.886;2023-06-19T10:11:16;13.02;;;9.73;;
75377;SDS011;63959;51.960;5.886;2023-06-19T10:13:45;15.50;;;10.00;;
75377;SDS011;63959;51.960;5.886;2023-06-19T10:16:20;14.23;;;10.10;;
75377;SDS011;63959;51.960;5.886;2023-06-19T10:18:49;16.25;;;10.75;;
75377;SDS011;63959;51.960;5.886;2023-06-19T10:21:18;12.80;;;9.00;;
75377;SDS011;63959;51.960;5.886;2023-06-19T10:23:56;13.82;;;10.80;;
75377;SDS011;63959;51.960;5.886;2023-06-19T10:26:32;15.15;;;12.15;;
75377;SDS011;63959;51.960;5.886;2023-06-19T10:29:01;11.32;;;9.30;;
75377;SDS011;63959;51.960;5.886;2023-06-19T10:31:30;16.40;;;12.80;;
75377;SDS011;63959;51.960;5.886;2023-06-19T10:33:58;13.43;;;10.93;;
75377;SDS011;63959;51.960;5.886;2023-06-19T10:36:27;13.32;;;10.55;;
75377;SDS011;63959;51.960;5.886;2023-06-19T10:38:58;12.20;;;8.77;;
75377;SDS011;63959;51.960;5.886;2023-06-19T10:41:27;12.77;;;9.57;;
75377;SDS011;63959;51.960;5.886;2023-06-19T10:43:58;11.75;;;8.57;;
75377;SDS011;63959;51.960;5.886;2023-06-19T10:46:28;17.90;;;13.90;;
75377;SDS011;63959;51.960;5.886;2023-06-19T10:48:57;17.27;;;12.18;;
75377;SDS011;63959;51.960;5.886;2023-06-19T10:51:26;13.95;;;12.40;;
75377;SDS011;63959;51.960;5.886;2023-06-19T10:53:58;15.75;;;12.23;;
75377;SDS011;63959;51.960;5.886;2023-06-19T10:56:26;15.63;;;12.73;;
75377;SDS011;63959;51.960;5.886;2023-06-19T10:58:58;17.38;;;14.60;;
75377;SDS011;63959;51.960;5.886;2023-06-19T11:01:34;18.60;;;15.40;;
75377;SDS011;63959;51.960;5.886;2023-06-19T11:04:04;14.38;;;11.15;;
75377;SDS011;63959;51.960;5.886;2023-06-19T11:06:33;16.27;;;14.32;;
75377;SDS011;63959;51.960;5.886;2023-06-19T11:09:04;13.45;;;10.98;;
75377;SDS011;63959;51.960;5.886;2023-06-19T11:11:37;16.48;;;12.18;;
75377;SDS011;63959;51.960;5.886;2023-06-19T11:14:06;13.80;;;11.00;;
75377;SDS011;63959;51.960;5.886;2023-06-19T11:16:37;15.45;;;12.98;;
75377;SDS011;63959;51.960;5.886;2023-06-19T11:19:06;14.73;;;12.48;;
75377;SDS011;63959;51.960;5.886;2023-06-19T11:21:35;15.82;;;12.48;;
75377;SDS011;63959;51.960;5.886;2023-06-19T11:24:12;15.93;;;13.15;;
75377;SDS011;63959;51.960;5.886;2023-06-19T11:26:41;13.43;;;11.80;;
75377;SDS011;63959;51.960;5.886;2023-06-19T11:29:15;14.90;;;11.52;;
75377;SDS011;63959;51.960;5.886;2023-06-19T11:31:44;16.00;;;11.73;;
75377;SDS011;63959;51.960;5.886;2023-06-19T11:34:13;13.13;;;10.85;;
75377;SDS011;63959;51.960;5.886;2023-06-19T11:36:42;12.30;;;9.90;;
75377;SDS011;63959;51.960;5.886;2023-06-19T11:39:15;13.80;;;10.25;;
75377;SDS011;63959;51.960;5.886;2023-06-19T11:41:43;11.40;;;9.15;;
75377;SDS011;63959;51.960;5.886;2023-06-19T11:44:12;12.73;;;10.10;;
75377;SDS011;63959;51.960;5.886;2023-06-19T11:46:41;12.45;;;9.77;;
75377;SDS011;63959;51.960;5.886;2023-06-19T11:49:11;12.43;;;10.85;;
75377;SDS011;63959;51.960;5.886;2023-06-19T11:51:40;17.52;;;13.55;;
75377;SDS011;63959;51.960;5.886;2023-06-19T11:54:09;14.38;;;12.65;;
75377;SDS011;63959;51.960;5.886;2023-06-19T11:56:41;16.02;;;11.48;;
75377;SDS011;63959;51.960;5.886;2023-06-19T11:59:10;15.55;;;11.40;;
75377;SDS011;63959;51.960;5.886;2023-06-19T12:01:39;11.95;;;8.55;;
75377;SDS011;63959;51.960;5.886;2023-06-19T12:04:08;14.85;;;10.32;;
75377;SDS011;63959;51.960;5.886;2023-06-19T12:06:37;13.18;;;8.85;;
75377;SDS011;63959;51.960;5.886;2023-06-19T12:09:08;14.93;;;10.73;;
75377;SDS011;63959;51.960;5.886;2023-06-19T12:11:40;13.30;;;9.88;;
75377;SDS011;63959;51.960;5.886;2023-06-19T12:14:09;13.93;;;9.45;;
75377;SDS011;63959;51.960;5.886;2023-06-19T12:16:38;13.63;;;9.07;;
75377;SDS011;63959;51.960;5.886;2023-06-19T12:19:07;10.45;;;7.90;;
75377;SDS011;63959;51.960;5.886;2023-06-19T12:21:35;11.13;;;7.13;;
75377;SDS011;63959;51.960;5.886;2023-06-19T12:24:04;9.60;;;7.68;;
75377;SDS011;63959;51.960;5.886;2023-06-19T12:26:33;12.00;;;9.13;;
75377;SDS011;63959;51.960;5.886;2023-06-19T12:29:06;9.98;;;6.35;;
75377;SDS011;63959;51.960;5.886;2023-06-19T12:31:35;10.77;;;8.60;;
75377;SDS011;63959;51.960;5.886;2023-06-19T12:34:04;10.15;;;6.80;;
75377;SDS011;63959;51.960;5.886;2023-06-19T12:36:33;10.85;;;7.60;;
75377;SDS011;63959;51.960;5.886;2023-06-19T12:39:02;15.05;;;10.45;;
75377;SDS011;63959;51.960;5.886;2023-06-19T12:41:40;13.45;;;8.90;;
75377;SDS011;63959;51.960;5.886;2023-06-19T12:44:11;12.90;;;9.20;;
75377;SDS011;63959;51.960;5.886;2023-06-19T12:46:40;12.10;;;8.95;;
75377;SDS011;63959;51.960;5.886;2023-06-19T12:49:08;13.98;;;9.65;;
75377;SDS011;63959;51.960;5.886;2023-06-19T12:51:37;10.80;;;7.35;;
75377;SDS011;63959;51.960;5.886;2023-06-19T12:54:05;9.15;;;6.57;;
75377;SDS011;63959;51.960;5.886;2023-06-19T12:56:34;9.57;;;5.97;;
75377;SDS011;63959;51.960;5.886;2023-06-19T12:59:02;10.23;;;6.40;;
75377;SDS011;63959;51.960;5.886;2023-06-19T13:01:33;10.63;;;7.57;;
75377;SDS011;63959;51.960;5.886;2023-06-19T13:04:02;12.18;;;7.70;;
75377;SDS011;63959;51.960;5.886;2023-06-19T13:06:31;10.60;;;6.43;;
75377;SDS011;63959;51.960;5.886;2023-06-19T13:09:00;8.75;;;5.78;;
75377;SDS011;63959;51.960;5.886;2023-06-19T13:11:31;9.68;;;7.15;;
75377;SDS011;63959;51.960;5.886;2023-06-19T13:13:59;9.77;;;6.22;;
75377;SDS011;63959;51.960;5.886;2023-06-19T13:16:28;8.25;;;5.63;;
75377;SDS011;63959;51.960;5.886;2023-06-19T13:18:59;8.60;;;6.05;;
75377;SDS011;63959;51.960;5.886;2023-06-19T13:21:28;8.90;;;6.28;;
75377;SDS011;63959;51.960;5.886;2023-06-19T13:23:56;8.30;;;5.07;;
75377;SDS011;63959;51.960;5.886;2023-06-19T13:26:25;11.93;;;7.10;;
75377;SDS011;63959;51.960;5.886;2023-06-19T13:28:53;9.45;;;6.50;;
75377;SDS011;63959;51.960;5.886;2023-06-19T13:31:24;9.80;;;6.32;;
75377;SDS011;63959;51.960;5.886;2023-06-19T13:33:53;9.57;;;6.40;;
75377;SDS011;63959;51.960;5.886;2023-06-19T13:36:24;9.77;;;5.10;;
75377;SDS011;63959;51.960;5.886;2023-06-19T13:38:52;9.73;;;6.45;;
75377;SDS011;63959;51.960;5.886;2023-06-19T13:41:21;10.02;;;6.28;;
75377;SDS011;63959;51.960;5.886;2023-06-19T13:43:52;7.20;;;4.65;;
75377;SDS011;63959;51.960;5.886;2023-06-19T13:46:21;7.57;;;5.38;;
75377;SDS011;63959;51.960;5.886;2023-06-19T13:48:50;10.73;;;6.75;;
75377;SDS011;63959;51.960;5.886;2023-06-19T13:51:19;7.90;;;5.38;;
75377;SDS011;63959;51.960;5.886;2023-06-19T13:53:50;9.95;;;6.75;;
75377;SDS011;63959;51.960;5.886;2023-06-19T13:56:20;8.48;;;5.65;;
75377;SDS011;63959;51.960;5.886;2023-06-19T13:58:48;9.18;;;6.05;;
75377;SDS011;63959;51.960;5.886;2023-06-19T14:01:17;12.40;;;6.60;;
75377;SDS011;63959;51.960;5.886;2023-06-19T14:03:46;9.32;;;6.05;;
75377;SDS011;63959;51.960;5.886;2023-06-19T14:06:14;10.40;;;7.45;;
75377;SDS011;63959;51.960;5.886;2023-06-19T14:08:43;11.93;;;7.50;;
75377;SDS011;63959;51.960;5.886;2023-06-19T14:11:14;9.20;;;7.38;;
75377;SDS011;63959;51.960;5.886;2023-06-19T14:13:43;8.70;;;5.88;;
75377;SDS011;63959;51.960;5.886;2023-06-19T14:16:11;11.82;;;6.78;;
75377;SDS011;63959;51.960;5.886;2023-06-19T14:18:40;10.20;;;7.53;;
75377;SDS011;63959;51.960;5.886;2023-06-19T14:21:08;12.63;;;7.05;;
75377;SDS011;63959;51.960;5.886;2023-06-19T14:23:37;10.55;;;6.65;;
75377;SDS011;63959;51.960;5.886;2023-06-19T14:26:08;7.78;;;5.78;;
75377;SDS011;63959;51.960;5.886;2023-06-19T14:28:40;11.20;;;7.63;;
75377;SDS011;63959;51.960;5.886;2023-06-19T14:31:08;11.90;;;8.68;;
75377;SDS011;63959;51.960;5.886;2023-06-19T14:33:37;10.63;;;7.35;;
75377;SDS011;63959;51.960;5.886;2023-06-19T14:36:05;9.95;;;7.55;;
75377;SDS011;63959;51.960;5.886;2023-06-19T14:38:34;9.95;;;7.78;;
75377;SDS011;63959;51.960;5.886;2023-06-19T14:41:02;13.95;;;9.80;;
75377;SDS011;63959;51.960;5.886;2023-06-19T14:43:31;13.30;;;8.65;;
75377;SDS011;63959;51.960;5.886;2023-06-19T14:46:03;12.30;;;9.25;;
75377;SDS011;63959;51.960;5.886;2023-06-19T14:48:32;12.25;;;8.35;;
75377;SDS011;63959;51.960;5.886;2023-06-19T14:51:00;12.35;;;8.23;;
75377;SDS011;63959;51.960;5.886;2023-06-19T14:53:30;8.93;;;6.40;;
75377;SDS011;63959;51.960;5.886;2023-06-19T14:55:59;9.82;;;7.60;;